SBJR

Details ICAO SBJR
Name Jacarepagua
Region Brazil
Timezone America/Sao_Paulo (UTC-3.0)
Plans Departing 13
Arriving 15
Stats Elevation 10 ft / 3 m (AMSL)
Location -22.987778° -43.370277°
Runways 1
Magnetic Variation 22.639° W
Sunrise 2017-04-30 09:13:58 UTC / 2017-04-30 06:13:58 Local
Sunset 2017-04-30 20:29:46 UTC / 2017-04-30 17:29:46 Local
Advertisement - Login to hide

Runways

ID Width Length Bearing (true) Bearing (mag) Surface Threshold Offset Overrun Length
02 42 ft / 13 m 2,955 ft / 901 m 359.00° 21.64° Concrete 0 ft / 0 m 0 ft / 0 m
20 42 ft / 13 m 2,955 ft / 901 m 179.00° 201.64° Concrete 0 ft / 0 m 0 ft / 0 m

Map

Weather

Temperature
Clouds and Precipitation
Forecast for 2017-05-01 00:00 UTC. Updated an hour ago
Winds

METAR

SBJR 302300Z 14004KT 9999 FEW025 BKN080 23/17 Q1023

TAF

Not found
Warning: Do not use this data for real-world aviation or navigation. No guarantee of current accuracy is given.